Terminal Aerodrome Forecast
Issued by NWS

Home | Current Version | Previous Version | Graphics & Text | Print | Product List | Glossary On
Versions: 1 2 3 4 5 6 7 8 9 10 11 12 13 14 15 16 17 18 19 20 21 22 23 24 25 26 27 28 29 30 31 32 33 34 35 36 37
000
FTUS43 KGRB 261700
TAFRHI
TAF
KRHI 261732Z 2618/2718 29010G17KT P6SM SCT050
     FM270200 23003KT P6SM BKN100
      TEMPO 2707/2710 6SM -SHRA SCT040 BKN060
     FM271200 31009KT 5SM -RA BKN025 OVC040=

USA.gov is the U.S. government's official web portal to all federal, state and local government web resources and services.